Portada
METAR-TAF:

METAR-TAF

Aeroports :

Aeroport de Rabat

Rabat, Marroc

latitud: 34-03N, longitud: 006-46W, altitud: 84 m

Observació

L'informe es va fer fa 23 minuts, a les 13:00 UTC
Vent 3 kt del Oest
Temperatura 18°C
Humitat 59%
Pressió 1026 hPa
Visibilitat: 8000 m

METAR: GMME 131300Z 26003KT 8000 NSC 18/10 Q1026 NOSIG

Hora: 14:23 (13:23 UTC)

Pronòstic

L'informe es va fer fa 2 hores i 23 minuts, a les 11:00 UTC
Pronòstic vàlid del 13 a les 12 UTC al 14 a les 18 UTC
Vent 13 kt del Nord
Visibilitat: 8000 m
Núvols disperses a una alçada de 2000 ft
Cel ennuvolat a una alçada de 20000 ft
Temporalment
l' 13 a les 23 UTC al 14 a les 10 UTC
Vent 7 kt del Est/Nord-Est

TAF: GMME 131100Z 1312/1418 01013KT 8000 SCT020 BKN200 TEMPO 1323/1410 07007KT

Observacions i pronòstics meteorològics de més de 4000 aeroports (METAR i TAF).

Les estacions disponibles són els punts grocs i vermells al mapa.

Posi el ratolí al punt desitjat per veure el nom de l'estació.

Feu clic per veure les observacions i els pronòstics meteorològics.

Per canviar el mapa: feu clic els botons verds amb una creu de color negre per apropar; al botó verd amb un guió per allunyar la imatge; o en les fletxes verdes per a mapes adjacents.


METAR-TAF: